Terminal Aerodrome Forecast
Issued by NWS Amarillo, TX

Home | Current Version | Previous Version | Text Only | Print | Product List | Glossary On
Versions: 1 2 3 4 5 6 7 8 9 10 11 12 13 14
000
FTUS44 KAMA 071720
TAFGUY
TAF
KGUY 071720Z 0718/0818 03008KT P6SM OVC025
     FM072000 02016KT P6SM SCT025 BKN060
     FM080400 01008KT P6SM SCT025 BKN060=

USA.gov is the U.S. government's official web portal to all federal, state and local government web resources and services.